createdAt,value
2023-04-09T00:01:47.739Z,29.05
2023-04-09T00:04:17.079Z,29.77
2023-04-09T00:06:45.235Z,27.65
2023-04-09T00:09:13.278Z,30.35
2023-04-09T00:11:41.032Z,29.60
2023-04-09T00:14:09.019Z,29.58
2023-04-09T00:16:37.309Z,27.17
2023-04-09T00:19:05.136Z,29.17
2023-04-09T00:21:34.263Z,28.77
2023-04-09T00:24:02.196Z,27.08
2023-04-09T00:26:32.472Z,29.08
2023-04-09T00:29:00.532Z,27.25
2023-04-09T00:31:31.346Z,27.95
2023-04-09T00:33:59.095Z,27.77
2023-04-09T00:36:27.534Z,28.15
2023-04-09T00:38:59.490Z,28.27
2023-04-09T00:41:27.919Z,27.85
2023-04-09T00:43:57.263Z,27.52
2023-04-09T00:46:25.244Z,27.75
2023-04-09T00:48:53.309Z,25.13
2023-04-09T00:51:21.455Z,26.77
2023-04-09T00:53:49.481Z,25.80
2023-04-09T00:56:18.670Z,28.35
2023-04-09T00:58:46.673Z,28.27
2023-04-09T01:01:14.607Z,30.33
2023-04-09T01:03:42.698Z,28.63
2023-04-09T01:06:13.070Z,28.00
2023-04-09T01:08:46.133Z,31.48
2023-04-09T01:11:17.159Z,35.35
2023-04-09T01:13:50.440Z,32.08
2023-04-09T01:16:22.874Z,28.83
2023-04-09T01:18:53.776Z,29.23
2023-04-09T01:21:24.417Z,29.27
2023-04-09T01:23:58.977Z,30.08
2023-04-09T01:26:46.423Z,28.88
2023-04-09T01:29:16.945Z,28.70
2023-04-09T01:31:45.249Z,30.60
2023-04-09T01:34:14.107Z,29.83
2023-04-09T01:36:42.485Z,32.53
2023-04-09T01:39:10.821Z,30.55
2023-04-09T01:41:41.198Z,31.02
2023-04-09T01:44:10.153Z,31.17
2023-04-09T01:46:43.065Z,30.90
2023-04-09T01:49:11.703Z,33.58
2023-04-09T01:51:39.900Z,32.40
2023-04-09T01:54:07.718Z,30.58
2023-04-09T01:56:42.213Z,30.02
2023-04-09T01:59:10.749Z,30.58
2023-04-09T02:01:45.516Z,31.35
2023-04-09T02:04:17.545Z,32.55
2023-04-09T02:06:48.394Z,32.45
2023-04-09T02:09:18.096Z,34.13
2023-04-09T02:11:48.695Z,34.20
2023-04-09T02:14:17.222Z,30.92
2023-04-09T02:16:50.824Z,33.03
2023-04-09T02:19:19.018Z,31.50
2023-04-09T02:21:47.130Z,31.08
2023-04-09T02:24:15.022Z,31.98
2023-04-09T02:26:42.948Z,31.88
2023-04-09T02:29:12.626Z,30.55
2023-04-09T02:31:40.773Z,33.92
2023-04-09T02:34:10.048Z,31.83
2023-04-09T02:36:37.962Z,32.40
2023-04-09T02:39:06.016Z,32.60
2023-04-09T02:41:33.868Z,32.70
2023-04-09T02:44:01.813Z,32.45
2023-04-09T02:46:29.650Z,32.63
2023-04-09T02:48:58.119Z,32.33
2023-04-09T02:51:27.420Z,32.80
2023-04-09T02:53:55.575Z,38.42
2023-04-09T02:56:23.322Z,40.30
2023-04-09T02:58:54.170Z,38.90
2023-04-09T03:01:25.553Z,37.70
2023-04-09T03:03:53.411Z,37.03
2023-04-09T03:06:23.217Z,37.35
2023-04-09T03:08:56.807Z,38.03
2023-04-09T03:11:26.687Z,38.70
2023-04-09T03:13:56.318Z,38.53
2023-04-09T03:16:26.741Z,37.33
2023-04-09T03:18:55.014Z,38.05
2023-04-09T03:21:22.850Z,40.55
2023-04-09T03:23:53.788Z,40.35
2023-04-09T03:26:23.943Z,41.28
2023-04-09T03:28:52.025Z,41.65
2023-04-09T03:31:21.963Z,39.65
2023-04-09T03:33:49.718Z,40.63
2023-04-09T03:36:18.680Z,42.15
2023-04-09T03:39:05.427Z,40.35
2023-04-09T03:41:39.233Z,41.92
2023-04-09T03:44:11.508Z,40.75
2023-04-09T03:46:56.350Z,40.20
2023-04-09T03:49:27.650Z,39.33
2023-04-09T03:52:09.483Z,38.97
2023-04-09T03:54:43.994Z,38.65
2023-04-09T03:57:19.073Z,38.58
2023-04-09T03:59:49.972Z,37.35
2023-04-09T04:02:29.442Z,35.83
2023-04-09T04:05:01.886Z,35.92
2023-04-09T04:07:34.430Z,37.50
2023-04-09T04:10:17.343Z,35.50
2023-04-09T04:12:47.628Z,39.97
2023-04-09T04:15:43.326Z,43.92
2023-04-09T04:18:15.859Z,39.30
2023-04-09T04:20:46.630Z,38.60
2023-04-09T04:23:15.637Z,42.72
2023-04-09T04:25:58.170Z,53.85
2023-04-09T04:28:33.391Z,44.78
2023-04-09T04:31:08.528Z,37.75
2023-04-09T04:33:36.394Z,37.55
2023-04-09T04:36:07.480Z,39.33
2023-04-09T04:38:42.408Z,37.75
2023-04-09T04:41:18.935Z,37.20
2023-04-09T04:43:53.767Z,36.08
2023-04-09T04:46:24.272Z,36.17
2023-04-09T04:48:57.565Z,36.03
2023-04-09T04:51:28.220Z,35.60
2023-04-09T04:54:08.418Z,40.30
2023-04-09T04:56:37.840Z,39.47
2023-04-09T04:59:14.546Z,36.30
2023-04-09T05:02:04.360Z,36.40
2023-04-09T05:04:42.444Z,39.35
2023-04-09T05:07:13.878Z,38.63
2023-04-09T05:09:49.275Z,37.13
2023-04-09T05:12:21.809Z,39.55
2023-04-09T05:14:52.700Z,39.08
2023-04-09T05:17:21.179Z,36.30
2023-04-09T05:19:51.860Z,37.70
2023-04-09T05:22:25.068Z,40.08
2023-04-09T05:24:53.826Z,38.67
2023-04-09T05:27:25.890Z,37.00
2023-04-09T05:30:03.871Z,38.55
2023-04-09T05:32:32.430Z,37.15
2023-04-09T05:35:00.936Z,36.00
2023-04-09T05:37:30.920Z,36.63
2023-04-09T05:40:00.215Z,38.97
2023-04-09T05:42:30.324Z,39.35
2023-04-09T05:45:10.104Z,40.60
2023-04-09T05:47:47.175Z,41.83
2023-04-09T05:50:22.728Z,43.63
2023-04-09T05:52:59.506Z,47.33
2023-04-09T05:55:35.017Z,51.25
2023-04-09T05:58:08.525Z,49.83
2023-04-09T06:00:39.782Z,46.78
2023-04-09T06:03:11.828Z,48.20
2023-04-09T06:05:41.897Z,46.08
2023-04-09T06:08:10.149Z,44.85
2023-04-09T06:10:38.332Z,49.13
2023-04-09T06:13:09.427Z,45.47
2023-04-09T06:15:38.718Z,42.20
2023-04-09T06:18:07.492Z,41.30
2023-04-09T06:20:35.285Z,40.05
2023-04-09T06:23:03.392Z,37.15
2023-04-09T06:25:31.120Z,37.75
2023-04-09T06:27:59.061Z,36.80
2023-04-09T06:30:28.260Z,32.78
2023-04-09T06:32:58.110Z,36.08
2023-04-09T06:35:28.647Z,36.83
2023-04-09T06:37:58.378Z,35.17
2023-04-09T06:40:26.592Z,36.63
2023-04-09T06:42:58.540Z,34.88
2023-04-09T06:45:33.708Z,35.00
2023-04-09T06:48:02.793Z,33.90
2023-04-09T06:50:30.957Z,34.08
2023-04-09T06:52:59.363Z,34.70
2023-04-09T06:55:27.937Z,34.00
2023-04-09T06:57:55.753Z,30.48
2023-04-09T07:00:24.071Z,28.80
2023-04-09T07:02:54.964Z,28.15
2023-04-09T07:05:25.838Z,24.13
2023-04-09T07:07:53.661Z,24.83
2023-04-09T07:10:21.456Z,24.55
2023-04-09T07:12:52.707Z,25.35
2023-04-09T07:15:20.937Z,21.50
2023-04-09T07:17:48.784Z,18.02
2023-04-09T07:20:20.690Z,18.00
2023-04-09T07:22:48.544Z,18.20
2023-04-09T07:25:16.575Z,17.38
2023-04-09T07:27:44.666Z,19.90
2023-04-09T07:30:12.524Z,19.10
2023-04-09T07:32:40.363Z,20.90
2023-04-09T07:35:11.952Z,18.95
2023-04-09T07:37:44.386Z,19.08
2023-04-09T07:40:12.481Z,18.25
2023-04-09T07:42:44.070Z,19.35
2023-04-09T07:45:12.630Z,17.77
2023-04-09T07:47:42.085Z,15.52
2023-04-09T07:50:10.981Z,14.80
2023-04-09T07:52:38.701Z,13.75
2023-04-09T07:55:13.125Z,14.85
2023-04-09T07:57:43.022Z,13.73
2023-04-09T08:00:11.575Z,14.07
2023-04-09T08:02:44.913Z,14.60
2023-04-09T08:05:13.107Z,16.08
2023-04-09T08:07:43.352Z,13.52
2023-04-09T08:10:15.237Z,13.77
2023-04-09T08:12:43.228Z,14.68
2023-04-09T08:15:12.648Z,15.38
2023-04-09T08:17:40.488Z,13.98
2023-04-09T08:20:08.874Z,15.00
2023-04-09T08:22:38.886Z,15.85
2023-04-09T08:25:07.164Z,15.35
2023-04-09T08:27:37.324Z,15.10
2023-04-09T08:30:06.234Z,14.18
2023-04-09T08:32:34.110Z,14.88
2023-04-09T08:35:05.118Z,13.93
2023-04-09T08:37:34.659Z,15.23
2023-04-09T08:40:03.892Z,15.27
2023-04-09T08:42:32.928Z,13.77
2023-04-09T08:45:04.311Z,12.43
2023-04-09T08:47:33.685Z,13.10
2023-04-09T08:50:01.682Z,13.90
2023-04-09T08:52:32.758Z,13.32
2023-04-09T08:55:00.554Z,12.73
2023-04-09T08:57:31.284Z,13.57
2023-04-09T08:59:59.646Z,14.43
2023-04-09T09:02:28.879Z,14.23
2023-04-09T09:05:00.927Z,15.18
2023-04-09T09:07:29.407Z,14.00
2023-04-09T09:09:58.825Z,13.18
2023-04-09T09:12:36.936Z,12.75
2023-04-09T09:15:05.067Z,13.55
2023-04-09T09:17:35.480Z,12.57
2023-04-09T09:20:19.713Z,12.40
2023-04-09T09:22:55.082Z,9.32
2023-04-09T09:25:25.605Z,13.73
2023-04-09T09:27:54.078Z,14.95
2023-04-09T09:30:22.370Z,13.73
2023-04-09T09:32:54.404Z,11.77
2023-04-09T09:35:22.389Z,12.18
2023-04-09T09:38:01.723Z,12.73
2023-04-09T09:40:30.035Z,12.77
2023-04-09T09:42:57.974Z,14.45
2023-04-09T09:45:26.020Z,13.27
2023-04-09T09:47:55.731Z,11.50
2023-04-09T09:50:25.258Z,12.18
2023-04-09T09:52:55.553Z,12.18
2023-04-09T09:55:25.210Z,12.00
2023-04-09T09:57:53.791Z,12.07
2023-04-09T10:00:25.580Z,11.98
2023-04-09T10:02:59.162Z,12.35
2023-04-09T10:05:29.984Z,11.80
2023-04-09T10:07:58.843Z,12.38
2023-04-09T10:10:27.272Z,11.18
2023-04-09T10:12:55.334Z,12.43
2023-04-09T10:15:23.959Z,12.02
2023-04-09T10:17:54.404Z,12.18
2023-04-09T10:20:33.076Z,12.80
2023-04-09T10:23:06.942Z,12.63
2023-04-09T10:25:34.699Z,12.90
2023-04-09T10:28:02.736Z,12.52
2023-04-09T10:30:34.155Z,13.23
2023-04-09T10:33:12.756Z,13.13
2023-04-09T10:35:42.290Z,12.73
2023-04-09T10:38:11.331Z,12.15
2023-04-09T10:40:42.831Z,13.15
2023-04-09T10:43:11.075Z,11.40
2023-04-09T10:45:42.673Z,11.80
2023-04-09T10:48:14.661Z,11.50
2023-04-09T10:50:46.716Z,10.68
2023-04-09T10:53:22.996Z,11.98
2023-04-09T10:55:51.282Z,13.52
2023-04-09T10:58:19.425Z,11.93
2023-04-09T11:00:47.991Z,11.15
2023-04-09T11:03:27.328Z,13.13
2023-04-09T11:06:00.902Z,13.48
2023-04-09T11:08:32.675Z,14.45
2023-04-09T11:11:01.707Z,14.13
2023-04-09T11:13:31.062Z,13.02
2023-04-09T11:16:00.272Z,13.95
2023-04-09T11:18:28.714Z,11.85
2023-04-09T11:20:58.171Z,11.88
2023-04-09T11:23:26.809Z,13.20
2023-04-09T11:25:55.290Z,12.45
2023-04-09T11:28:24.403Z,12.48
2023-04-09T11:30:52.648Z,13.25
2023-04-09T11:33:20.770Z,12.95
2023-04-09T11:35:49.099Z,12.65
2023-04-09T11:38:18.814Z,13.45
2023-04-09T11:40:49.067Z,13.98
2023-04-09T11:43:18.078Z,13.82
2023-04-09T11:45:47.677Z,12.75
2023-04-09T11:48:16.022Z,12.07
2023-04-09T11:50:43.855Z,12.63
2023-04-09T11:53:19.582Z,12.75
2023-04-09T11:55:48.491Z,12.63
2023-04-09T11:58:16.660Z,11.50
2023-04-09T12:00:45.323Z,11.85
2023-04-09T12:03:13.617Z,10.95
2023-04-09T12:05:50.212Z,8.82
2023-04-09T12:08:24.053Z,11.25
2023-04-09T12:10:53.697Z,11.20
2023-04-09T12:13:22.083Z,10.63
2023-04-09T12:15:50.343Z,10.77
2023-04-09T12:18:18.220Z,10.07
2023-04-09T12:20:47.536Z,10.57
2023-04-09T12:23:15.643Z,10.30
2023-04-09T12:25:45.697Z,10.13
2023-04-09T12:28:15.812Z,10.02
2023-04-09T12:30:43.716Z,10.32
2023-04-09T12:33:11.681Z,9.88
2023-04-09T12:35:39.695Z,10.05
2023-04-09T12:38:07.950Z,11.13
2023-04-09T12:40:36.960Z,14.02
2023-04-09T12:43:06.224Z,15.60
2023-04-09T12:45:34.284Z,14.07
2023-04-09T12:48:02.678Z,9.70
2023-04-09T12:50:30.733Z,11.95
2023-04-09T12:52:58.827Z,10.52
2023-04-09T12:55:26.642Z,10.63
2023-04-09T12:57:54.422Z,10.23
2023-04-09T13:00:24.059Z,10.20
2023-04-09T13:02:52.773Z,9.52
2023-04-09T13:05:20.938Z,9.80
2023-04-09T13:07:50.763Z,8.40
2023-04-09T13:10:19.114Z,10.68
2023-04-09T13:12:47.321Z,10.38
2023-04-09T13:15:16.246Z,11.43
2023-04-09T13:17:45.939Z,10.13
2023-04-09T13:20:14.656Z,9.85
2023-04-09T13:22:43.035Z,11.85
2023-04-09T13:25:12.759Z,12.02
2023-04-09T13:27:42.645Z,12.32
2023-04-09T13:30:11.032Z,12.30
2023-04-09T13:32:39.294Z,13.48
2023-04-09T13:35:09.054Z,13.32
2023-04-09T13:37:36.842Z,14.90
2023-04-09T13:40:05.047Z,14.00
2023-04-09T13:42:33.080Z,12.70
2023-04-09T13:45:01.076Z,11.82
2023-04-09T13:47:29.415Z,11.20
2023-04-09T13:49:57.380Z,10.82
2023-04-09T13:52:29.655Z,11.82
2023-04-09T13:54:57.884Z,13.20
2023-04-09T13:57:25.655Z,13.88
2023-04-09T13:59:53.392Z,12.65
2023-04-09T14:02:21.494Z,10.50
2023-04-09T14:04:49.472Z,9.45
2023-04-09T14:07:17.301Z,13.80
2023-04-09T14:09:46.435Z,12.32
2023-04-09T14:12:14.233Z,13.77
2023-04-09T14:14:41.991Z,13.40
2023-04-09T14:17:09.976Z,13.18
2023-04-09T14:19:37.972Z,12.43
2023-04-09T14:22:07.210Z,12.73
2023-04-09T14:24:40.131Z,13.73
2023-04-09T14:27:09.471Z,11.35
2023-04-09T14:29:38.066Z,10.60
2023-04-09T14:32:06.233Z,10.27
2023-04-09T14:34:34.050Z,11.25
2023-04-09T14:37:01.814Z,12.07
2023-04-09T14:39:29.586Z,12.13
2023-04-09T14:41:57.816Z,11.38
2023-04-09T14:44:27.692Z,11.27
2023-04-09T14:46:56.202Z,11.18
2023-04-09T14:49:24.141Z,10.52
2023-04-09T14:51:52.034Z,10.70
2023-04-09T14:54:19.778Z,10.82
2023-04-09T14:56:47.627Z,10.95
2023-04-09T14:59:15.620Z,12.25
2023-04-09T15:01:44.825Z,12.20
2023-04-09T15:04:12.748Z,12.07
2023-04-09T15:06:40.884Z,12.18
2023-04-09T15:09:09.017Z,10.30
2023-04-09T15:11:36.809Z,9.77
2023-04-09T15:14:04.569Z,10.00
2023-04-09T15:16:37.778Z,9.77
2023-04-09T15:19:07.485Z,8.95
2023-04-09T15:21:35.595Z,10.00
2023-04-09T15:24:03.846Z,10.45
2023-04-09T15:26:33.159Z,9.88
2023-04-09T15:29:02.700Z,9.35
2023-04-09T15:31:30.645Z,10.65
2023-04-09T15:33:58.431Z,10.48
2023-04-09T15:36:29.160Z,12.00
2023-04-09T15:38:56.952Z,10.15
2023-04-09T15:41:26.858Z,8.63
2023-04-09T15:43:54.651Z,8.68
2023-04-09T15:46:22.571Z,8.63
2023-04-09T15:48:50.551Z,8.02
2023-04-09T15:51:18.665Z,9.82
2023-04-09T15:53:47.922Z,9.70
2023-04-09T15:56:16.918Z,9.00
2023-04-09T15:58:44.782Z,9.30
2023-04-09T16:01:12.695Z,9.52
2023-04-09T16:03:41.353Z,8.30
2023-04-09T16:06:10.227Z,8.18
2023-04-09T16:08:38.073Z,7.90
2023-04-09T16:11:08.154Z,8.40
2023-04-09T16:13:37.212Z,9.85
2023-04-09T16:16:06.884Z,8.85
2023-04-09T16:18:34.997Z,8.23
2023-04-09T16:21:02.801Z,8.20
2023-04-09T16:23:30.886Z,7.80
2023-04-09T16:25:58.730Z,9.38
2023-04-09T16:28:27.915Z,9.13
2023-04-09T16:30:55.709Z,11.70
2023-04-09T16:33:23.525Z,11.40
2023-04-09T16:35:51.336Z,9.30
2023-04-09T16:38:19.158Z,12.75
2023-04-09T16:40:46.975Z,11.30
2023-04-09T16:43:14.700Z,10.82
2023-04-09T16:45:44.262Z,9.73
2023-04-09T16:48:12.871Z,9.10
2023-04-09T16:50:41.236Z,7.68
2023-04-09T16:53:09.756Z,8.13
2023-04-09T16:55:37.848Z,7.90
2023-04-09T16:58:06.310Z,7.78
2023-04-09T17:00:35.311Z,7.90
2023-04-09T17:03:04.801Z,7.88
2023-04-09T17:05:33.110Z,8.05
2023-04-09T17:08:01.250Z,9.05
2023-04-09T17:10:29.206Z,9.05
2023-04-09T17:12:57.028Z,8.55
2023-04-09T17:15:25.269Z,9.70
2023-04-09T17:17:53.967Z,9.05
2023-04-09T17:20:25.279Z,9.32
2023-04-09T17:22:53.625Z,8.75
2023-04-09T17:25:21.613Z,9.30
2023-04-09T17:27:52.469Z,10.48
2023-04-09T17:30:21.437Z,8.50
2023-04-09T17:32:51.424Z,10.27
2023-04-09T17:35:24.513Z,9.30
2023-04-09T17:37:52.795Z,8.82
2023-04-09T17:40:20.676Z,8.07
2023-04-09T17:42:48.481Z,8.68
2023-04-09T17:45:17.112Z,8.57
2023-04-09T17:47:45.690Z,9.40
2023-04-09T17:50:13.707Z,9.70
2023-04-09T17:52:45.217Z,11.60
2023-04-09T17:55:14.002Z,11.60
2023-04-09T17:57:42.898Z,11.35
2023-04-09T18:00:11.527Z,11.35
2023-04-09T18:02:47.053Z,11.05
2023-04-09T18:05:15.321Z,11.00
2023-04-09T18:07:44.761Z,11.57
2023-04-09T18:10:13.075Z,10.18
2023-04-09T18:12:41.116Z,9.85
2023-04-09T18:15:09.282Z,10.32
2023-04-09T18:17:37.535Z,17.90
2023-04-09T18:20:06.533Z,13.63
2023-04-09T18:22:35.188Z,16.83
2023-04-09T18:25:04.835Z,13.07
2023-04-09T18:27:32.922Z,12.68
2023-04-09T18:30:00.821Z,14.98
2023-04-09T18:32:28.650Z,15.20
2023-04-09T18:34:57.027Z,13.82
2023-04-09T18:37:25.012Z,12.70
2023-04-09T18:39:52.741Z,13.43
2023-04-09T18:42:21.861Z,12.52
2023-04-09T18:44:49.669Z,13.50
2023-04-09T18:47:17.402Z,13.93
2023-04-09T18:49:45.240Z,15.23
2023-04-09T18:52:13.000Z,15.77
2023-04-09T18:54:40.792Z,13.95
2023-04-09T18:57:08.751Z,13.82
2023-04-09T18:59:37.880Z,14.40
2023-04-09T19:02:06.268Z,15.52
2023-04-09T19:04:36.506Z,15.20
2023-04-09T19:07:04.491Z,14.48
2023-04-09T19:09:32.944Z,13.20
2023-04-09T19:12:01.686Z,13.95
2023-04-09T19:14:29.462Z,14.50
2023-04-09T19:16:59.688Z,13.10
2023-04-09T19:19:28.997Z,12.55
2023-04-09T19:21:56.879Z,13.30
2023-04-09T19:24:25.031Z,12.73
2023-04-09T19:26:53.506Z,12.95
2023-04-09T19:29:21.360Z,14.07
2023-04-09T19:31:49.620Z,14.77
2023-04-09T19:34:18.865Z,14.30
2023-04-09T19:36:47.055Z,15.35
2023-04-09T19:39:15.523Z,14.48
2023-04-09T19:41:43.253Z,19.83
2023-04-09T19:44:11.355Z,16.50
2023-04-09T19:46:39.264Z,16.13
2023-04-09T19:49:07.000Z,15.40
2023-04-09T19:51:36.082Z,16.00
2023-04-09T19:54:04.203Z,15.30
2023-04-09T19:56:32.922Z,15.35
2023-04-09T19:59:00.885Z,14.63
2023-04-09T20:01:29.005Z,13.45
2023-04-09T20:03:57.488Z,14.52
2023-04-09T20:06:26.049Z,14.00
2023-04-09T20:08:55.948Z,14.73
2023-04-09T20:11:23.776Z,14.73
2023-04-09T20:13:51.941Z,13.90
2023-04-09T20:16:20.101Z,15.02
2023-04-09T20:18:47.983Z,14.00
2023-04-09T20:21:15.732Z,15.20
2023-04-09T20:23:45.208Z,14.32
2023-04-09T20:26:14.546Z,14.18
2023-04-09T20:28:42.347Z,15.57
2023-04-09T20:31:10.086Z,18.30
2023-04-09T20:33:37.856Z,16.77
2023-04-09T20:36:06.247Z,15.98
2023-04-09T20:38:34.250Z,17.20
2023-04-09T20:41:02.022Z,18.00
2023-04-09T20:43:31.517Z,17.42
2023-04-09T20:45:59.833Z,15.68
2023-04-09T20:48:31.364Z,16.17
2023-04-09T20:50:59.251Z,15.88
2023-04-09T20:53:27.006Z,16.10
2023-04-09T20:55:55.315Z,14.85
2023-04-09T20:58:23.124Z,15.77
2023-04-09T21:00:52.427Z,15.43
2023-04-09T21:03:20.801Z,14.35
2023-04-09T21:05:48.803Z,13.85
2023-04-09T21:08:16.616Z,14.95
2023-04-09T21:10:44.454Z,15.43
2023-04-09T21:13:12.154Z,14.27
2023-04-09T21:15:40.431Z,15.80
2023-04-09T21:18:09.592Z,15.55
2023-04-09T21:20:37.409Z,15.38
2023-04-09T21:23:05.325Z,17.10
2023-04-09T21:25:33.301Z,15.00
2023-04-09T21:28:01.454Z,16.15
2023-04-09T21:30:29.708Z,15.50
2023-04-09T21:32:57.936Z,14.50
2023-04-09T21:35:27.078Z,15.02
2023-04-09T21:37:55.087Z,46.58
2023-04-09T21:40:23.391Z,28.63
2023-04-09T21:42:51.284Z,17.80
2023-04-09T21:45:19.303Z,16.33
2023-04-09T21:47:47.282Z,15.15
2023-04-09T21:50:15.244Z,15.60
2023-04-09T21:52:45.626Z,15.95
2023-04-09T21:55:14.098Z,15.85
2023-04-09T21:57:42.209Z,15.30
2023-04-09T22:00:11.046Z,14.77
2023-04-09T22:02:40.116Z,14.05
2023-04-09T22:05:08.496Z,14.57
2023-04-09T22:07:37.298Z,15.05
2023-04-09T22:10:07.238Z,16.30
2023-04-09T22:12:36.171Z,15.10
2023-04-09T22:15:04.559Z,15.75
2023-04-09T22:17:32.334Z,16.30
2023-04-09T22:20:00.183Z,17.10
2023-04-09T22:22:27.884Z,16.38
2023-04-09T22:24:55.696Z,17.23
2023-04-09T22:27:25.231Z,17.92
2023-04-09T22:29:52.959Z,17.50
2023-04-09T22:32:20.859Z,18.02
2023-04-09T22:34:48.702Z,17.48
2023-04-09T22:37:17.311Z,16.85
2023-04-09T22:39:45.130Z,16.58
2023-04-09T22:42:12.976Z,16.92
2023-04-09T22:44:42.200Z,17.55
2023-04-09T22:47:10.023Z,16.88
2023-04-09T22:49:38.703Z,17.13
2023-04-09T22:52:06.673Z,17.25
2023-04-09T22:54:34.431Z,17.08
2023-04-09T22:57:02.373Z,16.30
2023-04-09T22:59:37.182Z,16.27
2023-04-09T23:02:09.005Z,17.23
2023-04-09T23:04:37.278Z,17.17
2023-04-09T23:07:05.044Z,16.50
2023-04-09T23:09:32.857Z,16.60
2023-04-09T23:12:01.302Z,16.33
2023-04-09T23:14:29.097Z,17.55
2023-04-09T23:16:57.927Z,16.73
2023-04-09T23:19:27.180Z,17.90
2023-04-09T23:21:54.918Z,18.40
2023-04-09T23:24:22.713Z,16.08
2023-04-09T23:26:50.464Z,17.45
2023-04-09T23:29:18.237Z,19.05
2023-04-09T23:31:45.971Z,18.58
2023-04-09T23:34:14.225Z,18.67
2023-04-09T23:36:43.389Z,19.05
2023-04-09T23:39:11.463Z,20.85
2023-04-09T23:41:39.576Z,19.08
2023-04-09T23:44:07.287Z,24.75
2023-04-09T23:46:35.038Z,18.45
2023-04-09T23:49:02.829Z,18.00
2023-04-09T23:51:31.691Z,18.02
2023-04-09T23:54:01.444Z,17.35
2023-04-09T23:56:29.441Z,18.02
2023-04-09T23:58:57.192Z,18.95
